Akeley, Minnesota
Current Conditions -  °F | °C
As of 2:35 AM on Wednesday 22 Oct 2014 (Local Time) from KY49 Reporting Station
Clear Clear  
Wind Chill: 41°   Ceiling: Unl
Heat Index: 46°   Visibility: 10mi
Dew Point: 38°   Wind: 9mph
Humidity: 73%   Direction: 150°SSE
Pressure: 30.05"   Gusts: 16mph
Location:  47°N, 94.73°W
Report Text: KY49 220735Z AUTO 15008G14KT 110V170 10SM CLR 08/03 A3005 RMK AO2 T00760031
Loading
Personal Weather Stations






























Interactive Weather Map
Tropical Storm Tracking
New forecast layout! Learn more

10-Day Weather Forecast

Advertisements
Track Severe Weather on mobile